Terminal Aerodrome Forecast
Issued by NWS

Home | Current Version | Previous Version | Graphics & Text | Print | Product List | Glossary On
Versions: 1 2 3 4 5 6 7 8 9 10 11 12 13 14 15 16
000
FTUS43 KUNR 191120
TAFGCC
TAF
KGCC 191120Z 1912/2012 28012KT P6SM BKN100
     FM191800 31015G25KT P6SM -SHRA OVC035
     FM200100 27010KT P6SM BKN050
     FM200700 23012G20KT P6SM SCT080=

USA.gov is the U.S. government's official web portal to all federal, state and local government web resources and services.